createdAt,value
2023-12-11T00:00:50.822Z,100901.13
2023-12-11T00:03:39.345Z,100901.16
2023-12-11T00:06:08.585Z,100906.63
2023-12-11T00:08:37.334Z,100877.53
2023-12-11T00:11:06.135Z,100860.78
2023-12-11T00:13:34.597Z,100866.13
2023-12-11T00:16:03.338Z,100868.84
2023-12-11T00:18:31.926Z,100875.09
2023-12-11T00:21:01.834Z,100880.38
2023-12-11T00:23:30.240Z,100877.84
2023-12-11T00:25:59.279Z,100872.63
2023-12-11T00:28:27.677Z,100878.09
2023-12-11T00:30:56.527Z,100883.41
2023-12-11T00:33:25.009Z,100877.28
2023-12-11T00:35:53.874Z,100899.44
2023-12-11T00:38:22.216Z,100906.47
2023-12-11T00:40:51.883Z,100921.59
2023-12-11T00:43:20.445Z,100920.78
2023-12-11T00:45:49.205Z,100915.47
2023-12-11T00:48:17.723Z,100915.56
2023-12-11T00:50:46.546Z,100912.91
2023-12-11T00:53:14.927Z,100899.75
2023-12-11T00:55:43.636Z,100895.31
2023-12-11T00:58:12.043Z,100892.75
2023-12-11T01:00:40.862Z,100891.84
2023-12-11T01:03:09.233Z,100889.19
2023-12-11T01:05:38.290Z,100892.91
2023-12-11T01:08:07.527Z,100872.56
2023-12-11T01:10:36.336Z,100866.38
2023-12-11T01:13:04.794Z,100855.00
2023-12-11T01:15:33.489Z,100863.13
2023-12-11T01:18:01.968Z,100875.34
2023-12-11T01:20:30.692Z,100878.94
2023-12-11T01:22:59.175Z,100865.66
2023-12-11T01:25:28.218Z,100845.44
2023-12-11T01:27:56.684Z,100837.50
2023-12-11T01:30:25.767Z,100848.91
2023-12-11T01:32:54.277Z,100844.59
2023-12-11T01:35:23.083Z,100850.81
2023-12-11T01:37:51.529Z,100850.00
2023-12-11T01:40:20.406Z,100835.09
2023-12-11T01:42:48.758Z,100835.09
2023-12-11T01:45:17.545Z,100844.81
2023-12-11T01:47:46.152Z,100858.97
2023-12-11T01:50:15.765Z,100859.88
2023-12-11T01:52:44.439Z,100854.63
2023-12-11T01:55:13.307Z,100848.41
2023-12-11T01:57:42.071Z,100833.44
2023-12-11T02:00:11.595Z,100810.38
2023-12-11T02:02:39.928Z,100801.50
2023-12-11T02:05:08.765Z,100796.19
2023-12-11T02:07:39.813Z,100802.44
2023-12-11T02:10:09.189Z,100793.59
2023-12-11T02:12:37.675Z,100799.78
2023-12-11T02:15:06.984Z,100812.22
2023-12-11T02:17:35.921Z,100826.34
2023-12-11T02:20:06.359Z,100832.53
2023-12-11T02:22:34.786Z,100854.69
2023-12-11T02:25:05.689Z,100849.38
2023-12-11T02:27:34.324Z,100845.81
2023-12-11T02:30:03.022Z,100858.25
2023-12-11T03:42:56.855Z,100709.53
2023-12-11T03:45:25.633Z,100710.34
2023-12-11T03:47:54.171Z,100728.97
2023-12-11T03:50:22.945Z,100745.84
2023-12-11T03:52:51.410Z,100738.88
2023-12-11T03:55:20.240Z,100732.69
2023-12-11T03:57:48.729Z,100721.16
2023-12-11T04:00:18.346Z,100712.28
2023-12-11T04:02:46.743Z,100687.66
2023-12-11T04:05:18.758Z,100679.72
2023-12-11T04:07:47.213Z,100687.59
2023-12-11T04:10:15.984Z,100693.06
2023-12-11T04:12:44.701Z,100686.94
2023-12-11T04:15:13.872Z,100686.94
2023-12-11T04:17:44.391Z,100690.50
2023-12-11T04:20:13.284Z,100724.06
2023-12-11T04:22:41.688Z,100725.00
2023-12-11T04:25:10.850Z,100713.56
2023-12-11T04:27:39.426Z,100717.19
2023-12-11T04:30:11.172Z,100721.56
2023-12-11T04:32:39.859Z,100719.94
2023-12-11T04:35:09.051Z,100720.72
2023-12-11T04:37:37.561Z,100730.50
2023-12-11T04:40:06.967Z,100734.88
2023-12-11T04:42:35.378Z,100723.47
2023-12-11T04:45:04.562Z,100734.88
2023-12-11T04:47:33.126Z,100749.06
2023-12-11T04:50:02.054Z,100771.09
2023-12-11T04:52:30.519Z,100778.22
2023-12-11T04:54:59.774Z,100787.09
2023-12-11T04:57:28.568Z,100781.91
2023-12-11T04:59:57.494Z,100777.41
2023-12-11T05:02:25.955Z,100774.88
2023-12-11T05:04:54.773Z,100780.16
2023-12-11T05:07:23.220Z,100787.19
2023-12-11T05:09:52.031Z,100795.22
2023-12-11T05:12:20.493Z,100785.47
2023-12-11T05:14:49.224Z,100796.91
2023-12-11T05:17:17.736Z,100806.69
2023-12-11T05:19:46.686Z,100832.19
2023-12-11T05:22:15.179Z,100832.09
2023-12-11T05:24:44.405Z,100820.56
2023-12-11T05:27:13.418Z,100804.53
2023-12-11T05:29:42.581Z,100810.53
2023-12-11T05:32:15.541Z,100796.97
2023-12-11T05:34:44.507Z,100794.16
2023-12-11T05:37:13.037Z,100787.84
2023-12-11T05:39:47.339Z,100799.13
2023-12-11T05:42:23.162Z,100796.19
2023-12-11T05:44:51.958Z,100792.16
2023-12-11T05:47:21.836Z,100772.78
2023-12-11T05:49:50.642Z,100766.16
2023-12-11T05:52:19.142Z,100765.78
2023-12-11T05:54:47.956Z,100747.06
2023-12-11T05:57:16.438Z,100749.34
2023-12-11T05:59:49.010Z,100743.13
2023-12-11T06:02:17.411Z,100754.13
2023-12-11T06:04:46.181Z,100754.97
2023-12-11T06:07:14.784Z,100745.09
2023-12-11T06:09:43.791Z,100729.75
2023-12-11T06:12:12.370Z,100719.59
2023-12-11T06:14:43.909Z,100709.38
2023-12-11T06:17:13.931Z,100689.91
2023-12-11T06:19:46.163Z,100701.22
2023-12-11T06:22:15.005Z,100700.84
2023-12-11T06:24:43.921Z,100728.00
2023-12-11T06:27:12.667Z,100738.81
2023-12-11T06:29:41.581Z,100751.00
2023-12-11T06:32:09.993Z,100748.22
2023-12-11T06:34:39.379Z,100735.78
2023-12-11T06:37:07.919Z,100738.50
2023-12-11T06:39:38.235Z,100757.06
2023-12-11T06:42:06.943Z,100762.75
2023-12-11T06:44:37.340Z,100753.13
2023-12-11T06:47:05.889Z,100753.13
2023-12-11T06:49:35.733Z,100762.97
2023-12-11T06:52:04.524Z,100768.41
2023-12-11T06:54:33.423Z,100773.28
2023-12-11T06:57:02.023Z,100789.47
2023-12-11T06:59:31.490Z,100792.06
2023-12-11T07:02:00.031Z,100778.16
2023-12-11T07:04:29.233Z,100765.84
2023-12-11T07:06:57.902Z,100754.50
2023-12-11T07:09:28.092Z,100759.81
2023-12-11T07:11:56.583Z,100745.00
2023-12-11T07:14:25.658Z,100737.13
2023-12-11T07:16:54.099Z,100734.66
2023-12-11T07:19:22.988Z,100722.31
2023-12-11T07:21:51.623Z,100714.47
2023-12-11T07:24:20.405Z,100727.88
2023-12-11T07:26:48.897Z,100731.41
2023-12-11T07:29:17.653Z,100732.38
2023-12-11T07:31:46.021Z,100739.53
2023-12-11T07:34:15.539Z,100737.81
2023-12-11T07:36:44.090Z,100736.19
2023-12-11T07:39:12.892Z,100746.81
2023-12-11T07:41:41.433Z,100729.25
2023-12-11T07:44:10.152Z,100742.69
2023-12-11T07:46:41.521Z,100730.50
2023-12-11T07:49:15.328Z,100729.63
2023-12-11T07:51:44.872Z,100735.00
2023-12-11T07:54:13.808Z,100733.28
2023-12-11T07:56:42.321Z,100719.13
2023-12-11T07:59:11.921Z,100723.63
2023-12-11T08:01:40.628Z,100736.91
2023-12-11T08:04:09.714Z,100736.09
2023-12-11T08:06:43.285Z,100738.75
2023-12-11T08:09:12.759Z,100707.81
2023-12-11T08:11:41.227Z,100691.19
2023-12-11T08:14:09.875Z,100687.72
2023-12-11T08:16:38.092Z,100686.75
2023-12-11T08:19:06.841Z,100682.41
2023-12-11T08:21:35.170Z,100675.38
2023-12-11T08:24:04.219Z,100675.50
2023-12-11T08:26:32.599Z,100677.22
2023-12-11T08:29:01.213Z,100687.84
2023-12-11T08:31:29.506Z,100683.56
2023-12-11T08:33:58.278Z,100679.19
2023-12-11T08:36:26.573Z,100695.09
2023-12-11T08:38:55.164Z,100704.91
2023-12-11T08:41:23.845Z,100699.75
2023-12-11T08:43:52.589Z,100693.53
2023-12-11T08:46:21.088Z,100673.38
2023-12-11T08:48:50.593Z,100657.47
2023-12-11T08:51:19.859Z,100651.22
2023-12-11T08:53:48.683Z,100647.81
2023-12-11T08:56:20.877Z,100647.78
2023-12-11T08:58:49.468Z,100652.31
2023-12-11T09:01:19.077Z,100665.69
2023-12-11T09:03:47.934Z,100672.75
2023-12-11T09:06:16.342Z,100685.34
2023-12-11T09:08:45.274Z,100683.59
2023-12-11T09:11:13.597Z,100693.47
2023-12-11T09:13:42.614Z,100703.19
2023-12-11T09:16:10.964Z,100710.25
2023-12-11T09:18:39.861Z,100706.78
2023-12-11T09:21:08.258Z,100704.94
2023-12-11T09:23:37.805Z,100704.94
2023-12-11T09:26:06.242Z,100694.31
2023-12-11T09:28:41.575Z,100696.06
2023-12-11T09:31:25.026Z,100697.78
2023-12-11T09:33:53.882Z,100701.38
2023-12-11T09:36:22.326Z,100710.25
2023-12-11T09:38:50.907Z,100719.13
2023-12-11T09:41:19.965Z,100713.81
2023-12-11T09:43:50.824Z,100710.28
2023-12-11T09:46:20.410Z,100701.47
2023-12-11T09:48:49.872Z,100698.00
2023-12-11T09:51:18.517Z,100708.63
2023-12-11T09:53:48.528Z,100713.81
2023-12-11T09:56:17.526Z,100730.75
2023-12-11T09:58:46.394Z,100721.94
2023-12-11T10:01:14.800Z,100716.72
2023-12-11T10:03:43.632Z,100719.44
2023-12-11T10:06:11.956Z,100700.94
2023-12-11T10:08:44.671Z,100678.84
2023-12-11T10:11:19.121Z,100678.84
2023-12-11T10:13:49.924Z,100681.44
2023-12-11T10:16:31.209Z,100671.69
2023-12-11T10:19:02.216Z,100667.25
2023-12-11T10:21:41.215Z,100673.53
2023-12-11T10:24:15.027Z,100690.31
2023-12-11T10:26:48.436Z,100704.44
2023-12-11T10:29:23.240Z,100687.84
2023-12-11T10:31:53.113Z,100693.16
2023-12-11T10:34:41.491Z,100677.25
2023-12-11T10:37:11.806Z,100674.59
2023-12-11T10:39:53.190Z,100656.78
2023-12-11T10:42:21.603Z,100645.44
2023-12-11T10:44:54.249Z,100653.44
2023-12-11T10:47:24.300Z,100649.00
2023-12-11T10:49:54.093Z,100655.22
2023-12-11T10:52:22.475Z,100642.88
2023-12-11T10:54:51.065Z,100626.16
2023-12-11T10:57:21.288Z,100620.84
2023-12-11T10:59:52.667Z,100596.19
2023-12-11T11:02:24.050Z,100598.78
2023-12-11T11:04:52.971Z,100592.50
2023-12-11T11:07:28.593Z,100584.59
2023-12-11T11:10:06.333Z,100583.72
2023-12-11T11:12:45.775Z,100594.34
2023-12-11T11:15:21.679Z,100581.78
2023-12-11T11:18:11.866Z,100588.00
2023-12-11T11:20:40.883Z,100575.41
2023-12-11T11:23:15.468Z,100569.19
2023-12-11T11:25:55.210Z,100567.28
2023-12-11T11:28:39.914Z,100573.34
2023-12-11T11:31:19.446Z,100559.09
2023-12-11T11:33:57.072Z,100557.13
2023-12-11T11:36:48.643Z,100534.72
2023-12-11T11:39:17.089Z,100537.72
2023-12-11T11:41:45.932Z,100542.56
2023-12-11T11:44:16.130Z,100559.69
2023-12-11T11:47:01.367Z,100534.69
2023-12-11T11:49:31.162Z,100509.69
2023-12-11T11:52:00.649Z,100507.59
2023-12-11T11:54:30.811Z,100514.22
2023-12-11T11:56:59.411Z,100511.25
2023-12-11T11:59:27.871Z,100525.19
2023-12-11T12:01:58.211Z,100524.97
2023-12-11T12:04:30.291Z,100520.59
2023-12-11T12:07:04.094Z,100540.09
2023-12-11T12:09:35.220Z,100538.38
2023-12-11T12:12:05.923Z,100541.38
2023-12-11T12:14:34.351Z,100541.44
2023-12-11T12:17:12.349Z,100541.50
2023-12-11T12:19:40.966Z,100535.47
2023-12-11T12:22:14.640Z,100545.34
2023-12-11T12:24:50.186Z,100553.25
2023-12-11T12:27:24.756Z,100549.66
2023-12-11T12:29:53.414Z,100556.06
2023-12-11T12:32:22.694Z,100549.81
2023-12-11T12:34:53.168Z,100542.78
2023-12-11T12:37:23.517Z,100534.94
2023-12-11T12:39:57.249Z,100521.66
2023-12-11T12:42:32.106Z,100531.63
2023-12-11T12:45:01.124Z,100522.91
2023-12-11T12:47:30.233Z,100493.75
2023-12-11T12:49:59.225Z,100485.09
2023-12-11T12:52:30.242Z,100499.34
2023-12-11T12:54:58.678Z,100521.53
2023-12-11T12:57:27.355Z,100503.94
2023-12-11T12:59:55.723Z,100508.50
2023-12-11T13:02:24.383Z,100512.94
2023-12-11T13:04:54.413Z,100510.41
2023-12-11T13:07:25.019Z,100517.44
2023-12-11T13:09:53.545Z,100521.09
2023-12-11T13:12:22.712Z,100522.91
2023-12-11T13:14:51.174Z,100530.03
2023-12-11T13:17:19.769Z,100521.34
2023-12-11T13:19:48.124Z,100526.75
2023-12-11T13:22:17.498Z,100532.13
2023-12-11T13:24:45.973Z,100530.34
2023-12-11T13:27:14.625Z,100527.75
2023-12-11T13:29:42.834Z,100526.88
2023-12-11T13:32:14.424Z,100532.19
2023-12-11T13:34:43.018Z,100534.03
2023-12-11T13:37:11.971Z,100523.47
2023-12-11T13:39:40.438Z,100516.50
2023-12-11T13:42:09.113Z,100510.34
2023-12-11T13:44:38.109Z,100498.09
2023-12-11T13:47:06.875Z,100491.06
2023-12-11T13:49:35.236Z,100496.41
2023-12-11T13:52:05.246Z,100496.41
2023-12-11T13:54:33.685Z,100491.22
2023-12-11T13:57:02.357Z,100470.13
2023-12-11T13:59:30.553Z,100462.22
2023-12-11T14:02:01.714Z,100476.41
2023-12-11T14:04:30.460Z,100471.22
2023-12-11T14:06:59.375Z,100468.59
2023-12-11T14:09:32.652Z,100474.03
2023-12-11T14:12:02.324Z,100482.00
2023-12-11T14:14:30.777Z,100474.97
2023-12-11T14:16:59.734Z,100465.28
2023-12-11T14:19:28.633Z,100467.19
2023-12-11T14:21:57.342Z,100468.09
2023-12-11T14:24:27.370Z,100455.72
2023-12-11T14:26:57.581Z,100445.22
2023-12-11T14:29:26.400Z,100466.56
2023-12-11T14:31:55.095Z,100469.22
2023-12-11T14:34:23.758Z,100474.41
2023-12-11T14:36:52.638Z,100472.66
2023-12-11T14:39:21.801Z,100472.84
2023-12-11T14:41:50.695Z,100470.13
2023-12-11T14:44:19.598Z,100474.63
2023-12-11T14:46:48.432Z,100479.16
2023-12-11T14:49:16.815Z,100475.59
2023-12-11T14:51:45.615Z,100462.31
2023-12-11T14:54:14.967Z,100469.31
2023-12-11T14:56:44.356Z,100471.25
2023-12-11T14:59:12.749Z,100483.59
2023-12-11T15:01:41.686Z,100477.44
2023-12-11T15:04:10.159Z,100487.22
2023-12-11T15:06:39.064Z,100485.44
2023-12-11T15:09:08.363Z,100478.47
2023-12-11T15:11:37.288Z,100488.28
2023-12-11T15:14:09.943Z,100481.19
2023-12-11T15:16:40.849Z,100473.22
2023-12-11T15:19:10.303Z,100465.44
2023-12-11T15:21:39.347Z,100476.06
2023-12-11T15:24:07.953Z,100480.69
2023-12-11T15:26:36.629Z,100486.00
2023-12-11T15:29:08.671Z,100470.81
2023-12-11T15:31:37.335Z,100456.69
2023-12-11T15:34:05.870Z,100471.69
2023-12-11T15:36:34.607Z,100480.59
2023-12-11T15:39:03.460Z,100474.38
2023-12-11T15:41:32.112Z,100483.09
2023-12-11T15:44:00.527Z,100488.28
2023-12-11T15:46:29.722Z,100490.75
2023-12-11T15:48:59.831Z,100491.50
2023-12-11T15:51:28.802Z,100482.47
2023-12-11T15:53:57.249Z,100477.91
2023-12-11T15:56:26.463Z,100464.72
2023-12-11T15:58:54.790Z,100488.59
2023-12-11T16:01:23.519Z,100501.97
2023-12-11T16:03:52.125Z,100494.81
2023-12-11T16:06:21.036Z,100493.06
2023-12-11T16:08:49.487Z,100495.72
2023-12-11T16:11:18.551Z,100486.72
2023-12-11T16:13:47.154Z,100468.06
2023-12-11T16:16:17.845Z,100480.28
2023-12-11T16:18:48.300Z,100472.97
2023-12-11T16:21:17.064Z,100471.13
2023-12-11T16:23:45.443Z,100478.84
2023-12-11T16:26:17.493Z,100469.81
2023-12-11T16:28:45.773Z,100479.25
2023-12-11T16:31:23.238Z,100487.88
2023-12-11T16:33:52.259Z,100491.06
2023-12-11T16:36:20.888Z,100504.25
2023-12-11T16:38:49.259Z,100499.53
2023-12-11T16:41:26.248Z,100482.56
2023-12-11T16:43:55.190Z,100472.66
2023-12-11T16:46:24.014Z,100490.06
2023-12-11T16:48:52.634Z,100481.03
2023-12-11T16:51:21.512Z,100471.34
2023-12-11T16:53:49.816Z,100472.16
2023-12-11T16:56:18.947Z,100489.06
2023-12-11T16:58:47.478Z,100496.09
2023-12-11T17:01:16.298Z,100498.75
2023-12-11T17:03:45.606Z,100493.63
2023-12-11T17:06:16.439Z,100506.84
2023-12-11T17:08:45.645Z,100506.00
2023-12-11T17:11:14.566Z,100497.97
2023-12-11T17:13:43.333Z,100504.69
2023-12-11T17:16:12.122Z,100497.47
2023-12-11T17:18:44.482Z,100502.78
2023-12-11T17:21:22.019Z,100501.94
2023-12-11T17:23:58.333Z,100494.06
2023-12-11T17:26:27.832Z,100491.53
2023-12-11T17:28:56.624Z,100493.38
2023-12-11T17:31:25.773Z,100483.63
2023-12-11T17:33:54.335Z,100491.78
2023-12-11T17:36:23.076Z,100502.41
2023-12-11T17:38:51.477Z,100513.16
2023-12-11T17:41:20.266Z,100527.22
2023-12-11T17:43:48.809Z,100523.59
2023-12-11T17:46:17.601Z,100525.38
2023-12-11T17:48:47.293Z,100519.81
2023-12-11T17:51:15.980Z,100510.06
2023-12-11T17:53:44.344Z,100525.69
2023-12-11T17:56:16.513Z,100520.00
2023-12-11T17:58:44.911Z,100531.38
2023-12-11T18:01:14.400Z,100542.50
2023-12-11T18:03:42.982Z,100536.94
2023-12-11T18:06:17.354Z,100530.75
2023-12-11T18:08:46.026Z,100535.34
2023-12-11T18:11:14.900Z,100514.16
2023-12-11T18:13:43.412Z,100512.41
2023-12-11T18:16:12.456Z,100522.19
2023-12-11T18:18:40.994Z,100525.63
2023-12-11T18:21:09.889Z,100528.56
2023-12-11T18:23:38.478Z,100529.66
2023-12-11T18:26:11.949Z,100520.00
2023-12-11T18:28:40.309Z,100507.78
2023-12-11T18:31:09.127Z,100510.50
2023-12-11T18:33:37.669Z,100509.66
2023-12-11T18:36:06.767Z,100516.06
2023-12-11T18:38:35.006Z,100511.84
2023-12-11T18:41:04.344Z,100518.09
2023-12-11T18:43:32.758Z,100519.94
2023-12-11T18:46:01.560Z,100511.19
2023-12-11T18:48:30.023Z,100519.13
2023-12-11T18:50:58.897Z,100525.38
2023-12-11T18:53:27.197Z,100509.69
2023-12-11T18:56:02.319Z,100523.91
2023-12-11T18:58:31.039Z,100516.84
2023-12-11T19:01:01.228Z,100512.63
2023-12-11T19:03:30.038Z,100520.59
2023-12-11T19:05:58.900Z,100538.38
2023-12-11T19:08:27.267Z,100555.34
2023-12-11T19:10:56.005Z,100554.56
2023-12-11T19:13:27.175Z,100551.09
2023-12-11T19:15:55.946Z,100537.00
2023-12-11T19:18:25.991Z,100546.78
2023-12-11T19:20:55.617Z,100544.13
2023-12-11T19:23:23.973Z,100535.41
2023-12-11T19:25:53.176Z,100542.69
2023-12-11T19:28:21.977Z,100561.25
2023-12-11T19:30:51.162Z,100563.91
2023-12-11T19:33:19.583Z,100570.94
2023-12-11T19:35:48.405Z,100567.50
2023-12-11T19:38:17.884Z,100570.16
2023-12-11T19:40:46.459Z,100573.59
2023-12-11T19:43:14.775Z,100577.25
2023-12-11T19:45:43.897Z,100577.88
2023-12-11T19:48:12.480Z,100577.69
2023-12-11T19:50:41.076Z,100579.25
2023-12-11T19:53:10.276Z,100573.53
2023-12-11T19:55:41.915Z,100571.56
2023-12-11T19:58:10.377Z,100588.19
2023-12-11T20:00:39.152Z,100583.38
2023-12-11T20:03:07.486Z,100585.88
2023-12-11T20:05:36.257Z,100581.34
2023-12-11T20:08:04.756Z,100579.56
2023-12-11T20:10:33.445Z,100581.16
2023-12-11T20:13:01.781Z,100582.97
2023-12-11T20:15:30.437Z,100581.16
2023-12-11T20:17:59.937Z,100583.03
2023-12-11T20:20:28.733Z,100582.09
2023-12-11T20:22:57.086Z,100586.59
2023-12-11T20:25:25.759Z,100581.28
2023-12-11T20:27:53.996Z,100570.78
2023-12-11T20:30:22.506Z,100570.78
2023-12-11T20:32:51.061Z,100571.84
2023-12-11T20:35:19.738Z,100567.47
2023-12-11T20:37:47.896Z,100571.06
2023-12-11T20:40:16.836Z,100555.25
2023-12-11T20:42:45.547Z,100557.19
2023-12-11T20:45:14.797Z,100556.50
2023-12-11T20:47:43.953Z,100555.81
2023-12-11T20:50:13.107Z,100544.50
2023-12-11T20:52:42.752Z,100536.53
2023-12-11T20:55:12.158Z,100538.38
2023-12-11T20:57:40.568Z,100553.50
2023-12-11T21:00:11.817Z,100563.31
2023-12-11T21:02:40.905Z,100566.22
2023-12-11T21:05:11.261Z,100558.38
2023-12-11T21:07:42.677Z,100560.22
2023-12-11T21:10:12.327Z,100561.19
2023-12-11T21:12:41.116Z,100563.06
2023-12-11T21:15:10.176Z,100575.50
2023-12-11T21:17:41.733Z,100574.66
2023-12-11T21:20:11.462Z,100572.06
2023-12-11T21:22:40.931Z,100574.78
2023-12-11T21:25:10.507Z,100579.41
2023-12-11T21:27:39.524Z,100578.47
2023-12-11T21:30:10.657Z,100568.81
2023-12-11T21:32:43.940Z,100573.31
2023-12-11T21:35:14.245Z,100577.81
2023-12-11T21:37:42.820Z,100565.47
2023-12-11T21:40:12.425Z,100587.63
2023-12-11T21:42:40.644Z,100593.78
2023-12-11T21:45:09.557Z,100582.31
2023-12-11T21:47:38.497Z,100589.34
2023-12-11T21:50:10.710Z,100573.53
2023-12-11T21:52:39.418Z,100584.25
2023-12-11T21:55:08.421Z,100589.56
2023-12-11T21:57:37.641Z,100576.38
2023-12-11T22:00:07.926Z,100564.88
2023-12-11T22:02:40.994Z,100568.47
2023-12-11T22:05:11.104Z,100574.69
2023-12-11T22:07:39.521Z,100582.81
2023-12-11T22:10:08.851Z,100580.16
2023-12-11T22:12:37.491Z,100602.28
2023-12-11T22:15:07.061Z,100619.19
2023-12-11T22:17:35.614Z,100622.66
2023-12-11T22:20:04.768Z,100621.84
2023-12-11T22:22:33.230Z,100621.91
2023-12-11T22:25:01.958Z,100625.47
2023-12-11T22:27:30.715Z,100619.34
2023-12-11T22:29:59.442Z,100617.63
2023-12-11T22:32:27.866Z,100611.50
2023-12-11T22:34:58.562Z,100593.88
2023-12-11T22:37:27.044Z,100585.97
2023-12-11T22:39:56.145Z,100577.13
2023-12-11T22:42:24.487Z,100581.53
2023-12-11T22:44:53.136Z,100591.22
2023-12-11T22:47:21.476Z,100585.97
2023-12-11T22:49:50.185Z,100603.75
2023-12-11T22:52:18.636Z,100607.22
2023-12-11T22:54:48.903Z,100601.09
2023-12-11T22:57:17.227Z,100595.84
2023-12-11T22:59:45.789Z,100590.59
2023-12-11T23:02:14.099Z,100587.09
2023-12-11T23:04:42.836Z,100576.47
2023-12-11T23:07:11.333Z,100582.69
2023-12-11T23:09:39.892Z,100583.63
2023-12-11T23:12:08.232Z,100588.13
2023-12-11T23:14:37.173Z,100587.31
2023-12-11T23:17:05.995Z,100602.41
2023-12-11T23:19:35.388Z,100602.41
2023-12-11T23:22:04.122Z,100606.91
2023-12-11T23:24:32.771Z,100599.88
2023-12-11T23:27:01.074Z,100599.88
2023-12-11T23:29:29.788Z,100597.28
2023-12-11T23:31:58.113Z,100591.09
2023-12-11T23:34:26.740Z,100604.34
2023-12-11T23:36:55.000Z,100591.25
2023-12-11T23:39:23.649Z,100594.81
2023-12-11T23:41:51.977Z,100591.25
2023-12-11T23:44:21.639Z,100588.66
2023-12-11T23:46:49.999Z,100581.63
2023-12-11T23:49:18.691Z,100575.44
2023-12-11T23:51:47.088Z,100584.31
2023-12-11T23:54:15.722Z,100587.03
2023-12-11T23:56:44.111Z,100598.50
2023-12-11T23:59:12.756Z,100607.38
